Time;durP1;ratioP1;P1;durP2;ratioP2;P2;SDS_P1;SDS_P2;PMS_P1;PMS_P2;Temp;Humidity;BMP_temperature;BMP_pressure;BME280_temperature;BME280_humidity;BME280_pressure;Samples;Min_cycle;Max_cycle;Signal;HPM_P1;HPM_P2
2022/08/01 00:01:00;;;;;;;12.30;8.25;;;;;;;;;;6254441;28;20041;-59
2022/08/01 00:04:02;;;;;;;11.90;7.70;;;;;;;;;;6254723;28;20052;-60
2022/08/01 00:07:03;;;;;;;10.80;8.25;;;;;;;;;;6250803;28;20037;-59
2022/08/01 00:10:07;;;;;;;10.68;7.78;;;;;;;;;;6252658;28;20418;-59
2022/08/01 00:13:08;;;;;;;12.77;8.02;;;;;;;;;;6251426;28;20803;-59
2022/08/01 00:16:09;;;;;;;12.95;7.38;;;;;;;;;;6249395;28;20134;-59
2022/08/01 00:19:09;;;;;;;13.50;7.88;;;;;;;;;;6252010;28;20060;-60
2022/08/01 00:22:10;;;;;;;11.48;7.82;;;;;;;;;;6253387;28;20100;-59
2022/08/01 00:25:10;;;;;;;11.05;7.97;;;;;;;;;;6249672;28;20164;-59
2022/08/01 00:28:13;;;;;;;10.70;7.40;;;;;;;;;;6251565;28;21696;-59
2022/08/01 00:31:13;;;;;;;10.25;7.78;;;;;;;;;;6248942;28;20075;-59
2022/08/01 00:34:14;;;;;;;11.70;8.25;;;;;;;;;;6252750;28;20065;-59
2022/08/01 00:37:15;;;;;;;11.00;7.78;;;;;;;;;;6251365;28;20068;-59
2022/08/01 00:40:16;;;;;;;11.40;7.43;;;;;;;;;;6253066;28;20049;-59
2022/08/01 00:43:16;;;;;;;20.05;7.97;;;;;;;;;;6256032;28;20064;-59
2022/08/01 00:46:17;;;;;;;11.38;7.38;;;;;;;;;;6257612;28;20061;-59
2022/08/01 00:49:17;;;;;;;32.33;8.35;;;;;;;;;;6255764;28;20095;-59
2022/08/01 00:52:20;;;;;;;68.35;9.00;;;;;;;;;;6248218;28;20049;-59
2022/08/01 00:55:20;;;;;;;16.75;7.65;;;;;;;;;;6249287;28;20535;-59
2022/08/01 00:58:21;;;;;;;13.70;7.72;;;;;;;;;;6253178;28;20064;-59
2022/08/01 01:01:22;;;;;;;22.75;8.02;;;;;;;;;;6250087;28;20060;-59
2022/08/01 01:04:23;;;;;;;11.88;8.10;;;;;;;;;;6250035;28;20057;-58
2022/08/01 01:08:12;;;;;;;8.80;6.53;;;;;;;;;;6250103;28;20107;-60
2022/08/01 01:11:28;;;;;;;31.60;6.55;;;;;;;;;;6216536;28;20053;-60
2022/08/01 01:14:47;;;;;;;32.65;7.32;;;;;;;;;;6252401;28;20072;-59
2022/08/01 01:18:13;;;;;;;28.45;7.00;;;;;;;;;;6250895;28;20053;-59
2022/08/01 01:21:17;;;;;;;14.98;5.68;;;;;;;;;;6248169;28;20093;-59
2022/08/01 01:24:36;;;;;;;56.50;7.80;;;;;;;;;;6250359;28;20045;-60
2022/08/01 01:27:49;;;;;;;21.70;5.80;;;;;;;;;;6250149;28;20555;-59
2022/08/01 01:30:54;;;;;;;11.93;6.10;;;;;;;;;;6251285;28;20057;-59
2022/08/01 01:33:57;;;;;;;9.63;6.47;;;;;;;;;;6249003;28;20049;-59
2022/08/01 01:37:01;;;;;;;10.93;6.80;;;;;;;;;;6252860;28;20044;-59
2022/08/01 01:40:04;;;;;;;10.15;7.32;;;;;;;;;;6251278;28;20532;-59
2022/08/01 01:43:09;;;;;;;9.07;6.72;;;;;;;;;;6247302;28;20057;-60
2022/08/01 01:46:12;;;;;;;9.18;6.53;;;;;;;;;;6249749;28;20055;-60
2022/08/01 01:49:14;;;;;;;9.07;6.75;;;;;;;;;;6251040;28;20057;-59
2022/08/01 01:52:16;;;;;;;10.52;6.47;;;;;;;;;;6250852;28;20146;-60
2022/08/01 01:55:19;;;;;;;10.13;5.68;;;;;;;;;;6252101;28;20086;-59
2022/08/01 01:58:21;;;;;;;8.48;5.85;;;;;;;;;;6249926;28;20049;-59
2022/08/01 02:01:25;;;;;;;21.60;5.70;;;;;;;;;;6249342;28;20144;-60
2022/08/01 02:04:27;;;;;;;24.25;6.00;;;;;;;;;;6247824;28;20064;-58
2022/08/01 02:07:29;;;;;;;43.28;7.03;;;;;;;;;;6250512;28;20053;-59
2022/08/01 02:10:31;;;;;;;21.23;6.90;;;;;;;;;;6249852;28;20063;-58
2022/08/01 02:13:34;;;;;;;13.68;5.80;;;;;;;;;;6250408;28;20045;-58
2022/08/01 02:16:36;;;;;;;10.85;6.93;;;;;;;;;;6247644;28;20093;-60
2022/08/01 02:19:38;;;;;;;7.32;5.75;;;;;;;;;;6253775;28;20052;-60
2022/08/01 02:22:55;;;;;;;7.60;5.47;;;;;;;;;;6266703;28;20087;-60
2022/08/01 02:25:58;;;;;;;8.80;5.47;;;;;;;;;;6277273;28;20309;-60
2022/08/01 02:29:06;;;;;;;8.60;4.60;;;;;;;;;;6287564;28;20056;-59
2022/08/01 02:32:12;;;;;;;7.63;5.32;;;;;;;;;;6292113;28;20046;-60
2022/08/01 02:35:35;;;;;;;7.22;5.10;;;;;;;;;;6293210;28;20094;-59
2022/08/01 02:38:40;;;;;;;7.22;5.35;;;;;;;;;;6281607;28;20126;-60
2022/08/01 02:41:47;;;;;;;7.03;5.00;;;;;;;;;;6272703;28;20044;-60
2022/08/01 02:44:49;;;;;;;7.38;5.22;;;;;;;;;;6283783;28;20652;-59
2022/08/01 02:47:53;;;;;;;7.78;5.35;;;;;;;;;;6288679;28;20048;-60
2022/08/01 02:50:56;;;;;;;9.05;5.18;;;;;;;;;;6279997;28;20048;-60
2022/08/01 02:53:59;;;;;;;7.47;5.97;;;;;;;;;;6287325;28;20044;-59
2022/08/01 02:57:02;;;;;;;8.70;5.90;;;;;;;;;;6282735;28;20457;-60
2022/08/01 03:00:05;;;;;;;8.25;5.57;;;;;;;;;;6289899;28;20434;-60
2022/08/01 03:03:07;;;;;;;8.18;6.30;;;;;;;;;;6286613;28;20124;-59
2022/08/01 03:06:08;;;;;;;;;;;;;;;;;;6287424;28;20040;-60
2022/08/01 03:09:10;;;;;;;9.05;5.50;;;;;;;;;;6292216;28;20393;-60
2022/08/01 03:12:17;;;;;;;9.57;6.13;;;;;;;;;;6286648;28;20044;-59
2022/08/01 03:15:19;;;;;;;12.05;6.18;;;;;;;;;;6289205;28;20190;-60
2022/08/01 03:18:21;;;;;;;11.35;6.35;;;;;;;;;;6291648;28;20055;-60
2022/08/01 03:21:23;;;;;;;10.68;6.20;;;;;;;;;;6287091;28;20045;-60
2022/08/01 03:24:25;;;;;;;7.40;5.45;;;;;;;;;;6283526;28;20518;-60
2022/08/01 03:27:27;;;;;;;8.48;5.82;;;;;;;;;;6289669;28;20056;-60
2022/08/01 03:30:30;;;;;;;8.88;6.13;;;;;;;;;;6288365;28;20484;-60
2022/08/01 03:33:31;;;;;;;9.23;6.43;;;;;;;;;;6289046;28;20052;-60
2022/08/01 03:36:35;;;;;;;8.98;6.30;;;;;;;;;;6288948;28;20055;-60
2022/08/01 03:40:10;;;;;;;11.77;6.32;;;;;;;;;;6292453;28;20070;-60
2022/08/01 03:43:18;;;;;;;10.52;6.88;;;;;;;;;;6283425;28;20106;-60
2022/08/01 03:46:29;;;;;;;13.63;7.47;;;;;;;;;;6283264;28;20145;-60
2022/08/01 03:49:33;;;;;;;15.98;8.00;;;;;;;;;;6286735;28;20119;-60
2022/08/01 03:52:37;;;;;;;11.82;6.55;;;;;;;;;;6288443;28;20136;-60
2022/08/01 03:55:39;;;;;;;12.85;7.25;;;;;;;;;;6277235;28;20052;-60
2022/08/01 03:58:42;;;;;;;14.23;6.80;;;;;;;;;;6265095;28;20176;-60
2022/08/01 04:01:45;;;;;;;9.40;6.47;;;;;;;;;;6262929;28;20059;-60
2022/08/01 04:04:45;;;;;;;9.50;6.63;;;;;;;;;;6264088;28;20045;-60
2022/08/01 04:07:50;;;;;;;8.13;6.35;;;;;;;;;;6266736;28;20087;-60
2022/08/01 04:10:51;;;;;;;12.25;7.43;;;;;;;;;;6268546;28;20044;-59
2022/08/01 04:13:53;;;;;;;12.35;8.18;;;;;;;;;;6265654;28;20725;-59
2022/08/01 04:16:54;;;;;;;13.35;8.90;;;;;;;;;;6262791;28;20495;-61
2022/08/01 04:19:55;;;;;;;10.95;7.80;;;;;;;;;;6265717;28;20051;-60
2022/08/01 04:22:55;;;;;;;10.40;7.97;;;;;;;;;;6266096;28;20634;-59
2022/08/01 04:25:59;;;;;;;11.70;8.00;;;;;;;;;;6266017;28;20048;-60
2022/08/01 04:29:04;;;;;;;10.40;8.05;;;;;;;;;;6266837;28;20198;-60
2022/08/01 04:32:09;;;;;;;11.70;7.25;;;;;;;;;;6271176;28;20093;-60
2022/08/01 04:35:12;;;;;;;12.27;8.02;;;;;;;;;;6267495;28;20055;-60
2022/08/01 04:38:27;;;;;;;12.35;8.70;;;;;;;;;;6264306;28;20408;-60
2022/08/01 04:41:30;;;;;;;12.18;8.55;;;;;;;;;;6265386;28;20083;-59
2022/08/01 04:44:32;;;;;;;11.82;9.00;;;;;;;;;;6256992;28;20390;-60
2022/08/01 04:47:34;;;;;;;14.35;8.55;;;;;;;;;;6267182;28;20043;-59
2022/08/01 04:50:36;;;;;;;12.52;9.05;;;;;;;;;;6263353;28;20040;-60
2022/08/01 04:53:36;;;;;;;12.65;10.30;;;;;;;;;;6262751;28;20139;-60
2022/08/01 04:56:37;;;;;;;13.70;10.18;;;;;;;;;;6263991;28;20055;-59
2022/08/01 04:59:42;;;;;;;14.35;11.10;;;;;;;;;;6266684;28;20403;-60
2022/08/01 05:02:43;;;;;;;19.83;12.05;;;;;;;;;;6269511;28;20052;-60
2022/08/01 05:05:45;;;;;;;17.75;12.50;;;;;;;;;;6280824;28;20060;-60
2022/08/01 05:08:45;;;;;;;18.20;12.70;;;;;;;;;;6269182;28;20487;-60
2022/08/01 05:11:46;;;;;;;26.13;18.25;;;;;;;;;;6262789;28;20368;-60
2022/08/01 05:14:46;;;;;;;19.70;13.00;;;;;;;;;;6269176;28;20487;-60
2022/08/01 05:17:47;;;;;;;21.48;14.95;;;;;;;;;;6263244;28;20460;-60
2022/08/01 05:20:47;;;;;;;25.30;15.15;;;;;;;;;;6266442;28;20045;-60
2022/08/01 05:23:48;;;;;;;22.13;13.30;;;;;;;;;;6262540;28;20062;-60
2022/08/01 05:26:49;;;;;;;20.70;14.02;;;;;;;;;;6266297;28;20071;-60
2022/08/01 05:29:50;;;;;;;19.00;13.02;;;;;;;;;;6264543;28;20094;-60
2022/08/01 05:32:50;;;;;;;17.73;11.07;;;;;;;;;;6266749;28;20040;-60
2022/08/01 05:35:51;;;;;;;13.95;10.35;;;;;;;;;;6269560;28;20044;-59
2022/08/01 05:38:51;;;;;;;17.02;10.05;;;;;;;;;;6285032;28;20044;-60
2022/08/01 05:41:52;;;;;;;15.00;10.13;;;;;;;;;;6288886;28;20491;-59
2022/08/01 05:44:52;;;;;;;15.55;11.20;;;;;;;;;;6286260;28;20109;-60
2022/08/01 05:47:53;;;;;;;16.90;11.55;;;;;;;;;;6269273;28;20048;-59
2022/08/01 05:50:54;;;;;;;18.70;11.57;;;;;;;;;;6261561;28;20032;-60
2022/08/01 05:53:56;;;;;;;18.50;11.20;;;;;;;;;;6257589;28;20047;-60
2022/08/01 05:56:59;;;;;;;15.93;11.52;;;;;;;;;;6268181;28;20048;-60
2022/08/01 06:00:00;;;;;;;18.55;11.88;;;;;;;;;;6269482;28;20068;-58
2022/08/01 06:03:00;;;;;;;19.90;14.82;;;;;;;;;;6266133;28;20040;-59
2022/08/01 06:06:01;;;;;;;15.88;12.10;;;;;;;;;;6269747;28;20174;-59
2022/08/01 06:09:02;;;;;;;16.23;12.88;;;;;;;;;;6266384;28;20045;-60
2022/08/01 06:12:03;;;;;;;14.23;9.85;;;;;;;;;;6263874;28;20072;-60
2022/08/01 06:15:05;;;;;;;16.08;11.38;;;;;;;;;;6266777;28;20041;-60
2022/08/01 06:18:05;;;;;;;14.43;10.43;;;;;;;;;;6270766;28;20145;-59
2022/08/01 06:21:06;;;;;;;13.88;8.73;;;;;;;;;;6267678;28;20053;-59
2022/08/01 06:24:07;;;;;;;11.98;8.43;;;;;;;;;;6272823;28;20741;-60
2022/08/01 06:27:08;;;;;;;15.40;8.87;;;;;;;;;;6271018;28;20762;-60
2022/08/01 06:30:09;;;;;;;14.53;10.23;;;;;;;;;;6269963;28;20052;-60
2022/08/01 06:33:09;;;;;;;24.65;16.35;;;;;;;;;;6270821;28;20049;-60
2022/08/01 06:36:10;;;;;;;11.75;8.93;;;;;;;;;;6266466;28;20155;-59
2022/08/01 06:39:10;;;;;;;15.13;8.68;;;;;;;;;;6269388;28;20049;-61
2022/08/01 06:42:11;;;;;;;16.63;10.02;;;;;;;;;;6270033;28;20889;-59
2022/08/01 06:45:13;;;;;;;14.25;10.07;;;;;;;;;;6267704;28;20060;-60
2022/08/01 06:48:14;;;;;;;17.42;11.15;;;;;;;;;;6265356;28;20084;-60
2022/08/01 06:51:17;;;;;;;11.73;7.35;;;;;;;;;;6265770;28;20045;-59
2022/08/01 06:54:18;;;;;;;19.85;9.80;;;;;;;;;;6268890;28;20139;-60
2022/08/01 06:57:19;;;;;;;15.05;7.65;;;;;;;;;;6266490;28;20052;-61
2022/08/01 07:00:22;;;;;;;14.23;6.75;;;;;;;;;;6268807;28;20075;-60
2022/08/01 07:03:22;;;;;;;10.68;6.35;;;;;;;;;;6268847;28;20052;-60
2022/08/01 07:06:24;;;;;;;13.57;7.28;;;;;;;;;;6264516;28;20656;-61
2022/08/01 07:09:26;;;;;;;11.70;9.07;;;;;;;;;;6263065;28;20487;-61
2022/08/01 07:12:26;;;;;;;13.63;8.35;;;;;;;;;;6265829;28;20129;-60
2022/08/01 07:15:27;;;;;;;12.03;7.70;;;;;;;;;;6270821;28;20037;-60
2022/08/01 07:18:27;;;;;;;10.85;6.95;;;;;;;;;;6264670;28;20470;-60
2022/08/01 07:21:28;;;;;;;10.32;7.20;;;;;;;;;;6270936;28;20049;-60
2022/08/01 07:24:29;;;;;;;11.90;7.03;;;;;;;;;;6268867;28;20470;-60
2022/08/01 07:27:29;;;;;;;10.38;6.70;;;;;;;;;;6266027;28;20389;-60
2022/08/01 07:30:30;;;;;;;8.93;6.63;;;;;;;;;;6269120;28;20087;-60
2022/08/01 07:33:30;;;;;;;10.93;7.37;;;;;;;;;;6266542;28;20048;-60
2022/08/01 07:36:31;;;;;;;10.63;7.10;;;;;;;;;;6263525;28;20045;-60
2022/08/01 07:39:32;;;;;;;12.80;7.93;;;;;;;;;;6259537;28;20530;-60
2022/08/01 07:42:32;;;;;;;8.77;6.27;;;;;;;;;;6271425;28;20059;-61
2022/08/01 07:45:33;;;;;;;9.47;6.80;;;;;;;;;;6266907;28;20075;-60
2022/08/01 07:48:34;;;;;;;7.73;6.13;;;;;;;;;;6266837;28;20045;-61
2022/08/01 07:51:34;;;;;;;9.30;5.80;;;;;;;;;;6265358;28;20074;-60
2022/08/01 07:54:35;;;;;;;8.57;6.63;;;;;;;;;;6265952;28;20052;-60
2022/08/01 07:57:36;;;;;;;7.50;5.17;;;;;;;;;;6268257;28;20060;-61
2022/08/01 08:00:37;;;;;;;7.20;4.87;;;;;;;;;;6264311;28;20053;-61
2022/08/01 08:03:38;;;;;;;7.43;5.50;;;;;;;;;;6265644;28;20041;-60
2022/08/01 08:06:38;;;;;;;9.30;5.37;;;;;;;;;;6262899;28;20076;-61
2022/08/01 08:09:39;;;;;;;6.63;4.90;;;;;;;;;;6273082;28;20507;-61
2022/08/01 08:12:39;;;;;;;6.67;5.33;;;;;;;;;;6270880;28;20132;-60
2022/08/01 08:15:40;;;;;;;8.57;5.30;;;;;;;;;;6272239;28;20057;-61
2022/08/01 08:18:40;;;;;;;8.63;4.73;;;;;;;;;;6287802;28;20432;-61
2022/08/01 08:21:41;;;;;;;6.80;5.13;;;;;;;;;;6285609;28;20055;-60
2022/08/01 08:24:42;;;;;;;7.97;6.00;;;;;;;;;;6282986;28;20553;-60
2022/08/01 08:27:42;;;;;;;7.17;5.43;;;;;;;;;;6282980;28;20541;-61
2022/08/01 08:30:43;;;;;;;8.83;6.33;;;;;;;;;;6285131;28;20113;-60
2022/08/01 08:33:43;;;;;;;7.57;4.67;;;;;;;;;;6285419;28;20100;-60
2022/08/01 08:36:44;;;;;;;6.10;4.90;;;;;;;;;;6276236;28;20048;-60
2022/08/01 08:39:45;;;;;;;6.80;4.97;;;;;;;;;;6281815;28;20094;-61
2022/08/01 08:42:46;;;;;;;7.30;5.20;;;;;;;;;;6278285;28;20049;-61
2022/08/01 08:45:46;;;;;;;6.87;4.60;;;;;;;;;;6285968;28;20057;-61
2022/08/01 08:48:47;;;;;;;8.30;5.87;;;;;;;;;;6271998;28;20202;-60
2022/08/01 08:51:50;;;;;;;;;;;;;;;;;;6269460;28;20790;-60
2022/08/01 08:54:52;;;;;;;6.63;5.63;;;;;;;;;;6272128;28;20008;-60
2022/08/01 08:57:53;;;;;;;8.18;5.68;;;;;;;;;;6266004;28;20788;-61
2022/08/01 09:00:54;;;;;;;7.60;5.03;;;;;;;;;;6266927;28;20072;-61
2022/08/01 09:03:55;;;;;;;7.23;4.60;;;;;;;;;;6270308;28;20487;-61
2022/08/01 09:06:55;;;;;;;7.77;5.37;;;;;;;;;;6282040;28;20048;-61
2022/08/01 09:09:56;;;;;;;7.77;5.03;;;;;;;;;;6284073;28;20128;-61
2022/08/01 09:13:10;;;;;;;9.93;7.43;;;;;;;;;;6285640;28;20055;-60
2022/08/01 09:16:17;;;;;;;11.65;8.18;;;;;;;;;;6280721;28;20044;-60
2022/08/01 09:19:19;;;;;;;8.35;5.43;;;;;;;;;;6272989;28;20214;-61
2022/08/01 09:22:22;;;;;;;10.10;6.07;;;;;;;;;;6287989;28;20056;-60
2022/08/01 09:25:23;;;;;;;10.57;6.72;;;;;;;;;;6283079;28;20136;-61
2022/08/01 09:28:29;;;;;;;7.00;5.17;;;;;;;;;;6272673;28;20568;-59
2022/08/01 09:31:42;;;;;;;7.28;5.00;;;;;;;;;;6286153;28;20388;-61
2022/08/01 09:34:42;;;;;;;5.68;5.07;;;;;;;;;;6296725;28;20045;-60
2022/08/01 09:37:43;;;;;;;7.77;5.33;;;;;;;;;;6285131;28;20095;-61
2022/08/01 09:40:45;;;;;;;6.97;5.30;;;;;;;;;;6288593;28;20045;-60
2022/08/01 09:43:50;;;;;;;6.88;5.00;;;;;;;;;;6289000;28;20131;-61
2022/08/01 09:46:55;;;;;;;6.38;4.70;;;;;;;;;;6285790;28;20044;-60
2022/08/01 09:49:56;;;;;;;5.55;4.15;;;;;;;;;;6286933;28;20063;-60
2022/08/01 09:52:57;;;;;;;6.88;4.60;;;;;;;;;;6291518;28;20399;-60
2022/08/01 09:56:10;;;;;;;6.33;4.73;;;;;;;;;;6289292;28;20051;-59
2022/08/01 09:59:11;;;;;;;7.20;4.78;;;;;;;;;;6276271;28;20057;-60
2022/08/01 10:02:25;;;;;;;7.97;4.77;;;;;;;;;;6264214;28;20575;-61
2022/08/01 10:05:32;;;;;;;7.07;4.53;;;;;;;;;;6264645;28;20310;-61
2022/08/01 10:08:45;;;;;;;8.07;5.25;;;;;;;;;;6270629;28;20109;-61
2022/08/01 10:11:46;;;;;;;7.05;5.65;;;;;;;;;;6261169;28;20457;-62
2022/08/01 10:14:50;;;;;;;6.60;5.87;;;;;;;;;;6269436;28;20095;-60
2022/08/01 10:17:56;;;;;;;12.25;5.82;;;;;;;;;;6269155;28;20045;-61
2022/08/01 10:20:58;;;;;;;9.07;6.32;;;;;;;;;;6257100;28;20079;-62
2022/08/01 10:24:01;;;;;;;9.23;5.65;;;;;;;;;;6263119;28;20053;-61
2022/08/01 10:27:05;;;;;;;10.10;6.70;;;;;;;;;;6255188;28;20045;-61
2022/08/01 10:30:10;;;;;;;8.52;5.88;;;;;;;;;;6267479;28;20103;-61
2022/08/01 10:33:10;;;;;;;10.52;6.75;;;;;;;;;;6267628;28;20465;-62
2022/08/01 10:36:11;;;;;;;7.97;6.00;;;;;;;;;;6283566;28;20071;-61
2022/08/01 10:39:12;;;;;;;7.97;6.93;;;;;;;;;;6287228;28;20071;-61
2022/08/01 10:42:12;;;;;;;8.80;7.07;;;;;;;;;;6284466;28;20045;-61
2022/08/01 10:45:15;;;;;;;10.67;6.77;;;;;;;;;;6275828;28;20113;-61
2022/08/01 10:48:27;;;;;;;11.68;7.20;;;;;;;;;;6288466;28;20045;-61
2022/08/01 10:51:28;;;;;;;11.02;7.68;;;;;;;;;;6279517;28;20134;-61
2022/08/01 10:54:29;;;;;;;11.00;7.30;;;;;;;;;;6270103;28;20427;-62
2022/08/01 10:57:46;;;;;;;11.00;8.10;;;;;;;;;;6286906;28;20052;-62
2022/08/01 11:00:47;;;;;;;10.10;8.27;;;;;;;;;;6284131;28;20051;-62
2022/08/01 11:04:00;;;;;;;10.33;8.33;;;;;;;;;;6286846;28;20384;-62
2022/08/01 11:07:15;;;;;;;10.07;8.30;;;;;;;;;;6285559;28;20130;-61
2022/08/01 11:10:21;;;;;;;11.15;8.48;;;;;;;;;;6289582;28;20044;-61
2022/08/01 11:14:00;;;;;;;9.73;8.73;;;;;;;;;;6293681;28;20056;-61
2022/08/01 11:17:30;;;;;;;9.68;8.55;;;;;;;;;;6284837;28;20052;-61
2022/08/01 11:20:35;;;;;;;11.40;8.93;;;;;;;;;;6284938;28;20087;-62
2022/08/01 11:23:48;;;;;;;9.55;8.48;;;;;;;;;;6281560;28;20124;-62
2022/08/01 11:27:16;;;;;;;10.15;8.65;;;;;;;;;;6284823;28;20525;-61
2022/08/01 11:30:16;;;;;;;10.93;8.45;;;;;;;;;;6285561;28;20072;-61
2022/08/01 11:33:49;;;;;;;9.80;8.77;;;;;;;;;;6285395;28;20045;-61
2022/08/01 11:37:23;;;;;;;10.98;8.07;;;;;;;;;;6284135;28;20076;-62
2022/08/01 11:40:28;;;;;;;9.98;7.90;;;;;;;;;;6284311;28;20043;-61
2022/08/01 11:43:29;;;;;;;10.18;7.90;;;;;;;;;;6287020;28;20049;-62
2022/08/01 11:46:44;;;;;;;9.77;8.03;;;;;;;;;;6285930;28;20135;-62
2022/08/01 11:49:49;;;;;;;8.73;7.72;;;;;;;;;;6275525;28;20049;-62
2022/08/01 11:52:57;;;;;;;9.82;7.65;;;;;;;;;;6289194;28;20166;-61
2022/08/01 11:55:58;;;;;;;10.07;8.32;;;;;;;;;;6263802;28;20045;-61
2022/08/01 11:58:59;;;;;;;8.85;7.95;;;;;;;;;;6269026;28;20136;-61
2022/08/01 12:02:01;;;;;;;9.53;8.10;;;;;;;;;;6259229;28;20469;-61
2022/08/01 12:05:11;;;;;;;10.02;8.30;;;;;;;;;;6266981;28;20053;-60
2022/08/01 12:08:12;;;;;;;10.80;8.38;;;;;;;;;;6266123;28;20140;-62
2022/08/01 12:11:12;;;;;;;12.30;8.87;;;;;;;;;;6288173;28;20399;-63
2022/08/01 12:14:19;;;;;;;13.60;9.33;;;;;;;;;;6284091;28;20475;-61
2022/08/01 12:17:27;;;;;;;10.27;8.65;;;;;;;;;;6275939;28;20049;-62
2022/08/01 12:20:33;;;;;;;8.70;7.13;;;;;;;;;;6267807;28;20140;-62
2022/08/01 12:23:33;;;;;;;8.55;7.35;;;;;;;;;;6265290;28;20086;-62
2022/08/01 12:26:41;;;;;;;7.90;5.40;;;;;;;;;;6268105;28;20535;-62
2022/08/01 12:29:43;;;;;;;9.20;6.50;;;;;;;;;;6260937;28;20136;-63
2022/08/01 12:32:49;;;;;;;9.40;6.72;;;;;;;;;;6266229;28;20137;-62
2022/08/01 12:35:50;;;;;;;9.80;6.25;;;;;;;;;;6268721;28;20091;-63
2022/08/01 12:38:54;;;;;;;8.07;6.67;;;;;;;;;;6266452;28;20049;-63
2022/08/01 12:41:54;;;;;;;8.50;6.53;;;;;;;;;;6266354;28;20067;-62
2022/08/01 12:44:55;;;;;;;8.20;6.00;;;;;;;;;;6272144;28;20053;-62
2022/08/01 12:48:00;;;;;;;9.30;6.20;;;;;;;;;;6266464;28;20049;-61
2022/08/01 12:51:02;;;;;;;8.15;5.72;;;;;;;;;;6267073;28;20055;-61
2022/08/01 12:54:04;;;;;;;6.90;5.75;;;;;;;;;;6265664;28;20045;-62
2022/08/01 12:57:05;;;;;;;;;;;;;;;;;;6275782;28;20132;-62
2022/08/01 13:00:15;;;;;;;6.85;5.50;;;;;;;;;;6260162;28;19921;-63
2022/08/01 13:03:19;;;;;;;9.95;5.95;;;;;;;;;;6261744;28;20041;-62
2022/08/01 13:06:19;;;;;;;8.18;6.28;;;;;;;;;;6266666;28;20053;-61
2022/08/01 13:09:20;;;;;;;8.80;6.33;;;;;;;;;;6271630;28;20053;-62
2022/08/01 13:12:20;;;;;;;8.83;6.40;;;;;;;;;;6274375;28;20480;-63
2022/08/01 13:15:25;;;;;;;7.60;6.27;;;;;;;;;;6274892;28;20102;-62
2022/08/01 13:18:30;;;;;;;9.75;6.43;;;;;;;;;;6256382;28;20061;-62
2022/08/01 13:21:31;;;;;;;8.73;5.97;;;;;;;;;;6256209;28;20137;-62
2022/08/01 13:24:32;;;;;;;7.93;6.10;;;;;;;;;;6256495;28;20408;-62
2022/08/01 13:27:32;;;;;;;7.70;5.70;;;;;;;;;;6264232;28;20294;-62
2022/08/01 13:30:33;;;;;;;7.77;5.70;;;;;;;;;;6279995;28;20057;-61
2022/08/01 13:33:42;;;;;;;8.47;5.70;;;;;;;;;;6254372;28;20045;-61
2022/08/01 13:36:43;;;;;;;5.90;5.22;;;;;;;;;;6256546;28;20064;-61
2022/08/01 13:39:44;;;;;;;7.50;5.23;;;;;;;;;;6260885;28;20053;-61
2022/08/01 13:42:44;;;;;;;5.60;4.70;;;;;;;;;;6255786;28;20045;-62
2022/08/01 13:45:45;;;;;;;8.97;5.30;;;;;;;;;;6253804;28;20572;-63
2022/08/01 13:48:46;;;;;;;8.30;5.70;;;;;;;;;;6254355;28;20056;-61
2022/08/01 13:51:49;;;;;;;8.05;5.50;;;;;;;;;;6254364;28;20056;-61
2022/08/01 13:54:50;;;;;;;8.05;5.72;;;;;;;;;;6256696;28;20132;-61
2022/08/01 13:57:51;;;;;;;8.60;5.83;;;;;;;;;;6256554;28;20068;-62
2022/08/01 14:00:51;;;;;;;9.50;6.00;;;;;;;;;;6257435;28;20669;-60
2022/08/01 14:03:52;;;;;;;6.90;5.40;;;;;;;;;;6254428;28;20571;-61
2022/08/01 14:06:53;;;;;;;9.37;6.07;;;;;;;;;;6256833;28;20177;-62
2022/08/01 14:09:54;;;;;;;8.65;6.30;;;;;;;;;;6256068;28;20439;-62
2022/08/01 14:12:57;;;;;;;8.00;6.10;;;;;;;;;;6252673;28;20049;-61
2022/08/01 14:15:59;;;;;;;10.85;6.10;;;;;;;;;;6256802;28;20409;-61
2022/08/01 14:19:00;;;;;;;7.25;6.35;;;;;;;;;;6262916;28;20091;-61
2022/08/01 14:22:00;;;;;;;11.13;6.75;;;;;;;;;;6259458;28;20132;-60
2022/08/01 14:25:01;;;;;;;8.70;5.93;;;;;;;;;;6257799;28;20044;-61
2022/08/01 14:28:02;;;;;;;7.60;6.32;;;;;;;;;;6261052;28;20045;-60
2022/08/01 14:31:03;;;;;;;8.10;6.50;;;;;;;;;;6259425;28;20051;-61
2022/08/01 14:34:04;;;;;;;8.57;5.90;;;;;;;;;;6256709;28;20041;-62
2022/08/01 14:37:04;;;;;;;7.97;5.90;;;;;;;;;;6262458;28;20108;-60
2022/08/01 14:40:08;;;;;;;8.27;6.20;;;;;;;;;;6261124;28;20049;-61
2022/08/01 14:43:09;;;;;;;8.10;6.25;;;;;;;;;;6257354;28;20071;-61
2022/08/01 14:46:11;;;;;;;12.30;6.87;;;;;;;;;;6261001;28;20057;-60
2022/08/01 14:49:11;;;;;;;8.30;6.28;;;;;;;;;;6261588;28;20045;-60
2022/08/01 14:52:12;;;;;;;9.63;7.17;;;;;;;;;;6256803;28;20092;-60
2022/08/01 14:55:13;;;;;;;8.30;6.33;;;;;;;;;;6259987;28;20115;-59
2022/08/01 14:58:14;;;;;;;10.23;7.22;;;;;;;;;;6260410;28;20575;-59
2022/08/01 15:01:14;;;;;;;11.30;7.05;;;;;;;;;;6260086;28;20049;-60
2022/08/01 15:04:16;;;;;;;9.43;6.67;;;;;;;;;;6256998;28;20656;-60
2022/08/01 15:07:18;;;;;;;8.95;7.03;;;;;;;;;;6260851;28;20045;-58
2022/08/01 15:10:21;;;;;;;8.43;6.68;;;;;;;;;;6254317;28;20056;-59
2022/08/01 15:13:21;;;;;;;10.55;6.55;;;;;;;;;;6256535;28;20056;-59
2022/08/01 15:16:22;;;;;;;10.87;7.43;;;;;;;;;;6260157;28;20037;-59
2022/08/01 15:19:23;;;;;;;8.43;6.43;;;;;;;;;;6260805;28;20095;-57
2022/08/01 15:22:25;;;;;;;8.07;7.23;;;;;;;;;;6256862;28;20045;-57
2022/08/01 15:25:25;;;;;;;8.57;6.78;;;;;;;;;;6259207;28;20120;-59
2022/08/01 15:28:26;;;;;;;9.93;7.17;;;;;;;;;;6259316;28;20123;-58
2022/08/01 15:31:27;;;;;;;9.80;7.17;;;;;;;;;;6259391;28;20060;-58
2022/08/01 15:34:27;;;;;;;9.43;7.07;;;;;;;;;;6255677;28;20099;-59
2022/08/01 15:37:28;;;;;;;8.03;6.63;;;;;;;;;;6258943;28;20041;-58
2022/08/01 15:40:28;;;;;;;11.10;7.33;;;;;;;;;;6259254;28;20057;-57
2022/08/01 15:43:29;;;;;;;11.37;6.90;;;;;;;;;;6252000;28;20056;-60
2022/08/01 15:46:29;;;;;;;8.33;6.90;;;;;;;;;;6257428;28;20080;-59
2022/08/01 15:49:30;;;;;;;8.93;7.37;;;;;;;;;;6260502;28;20048;-59
2022/08/01 15:52:31;;;;;;;9.05;7.25;;;;;;;;;;6256547;28;20480;-58
2022/08/01 15:55:35;;;;;;;12.30;8.33;;;;;;;;;;6257819;28;20057;-57
2022/08/01 15:58:35;;;;;;;9.25;7.90;;;;;;;;;;6258232;28;20642;-60
2022/08/01 16:01:37;;;;;;;10.33;7.90;;;;;;;;;;6258844;28;20053;-60
2022/08/01 16:04:38;;;;;;;8.90;7.90;;;;;;;;;;6259245;28;20122;-60
2022/08/01 16:07:38;;;;;;;9.23;8.10;;;;;;;;;;6261558;28;20053;-60
2022/08/01 16:10:39;;;;;;;9.70;8.37;;;;;;;;;;6259191;28;20065;-60
2022/08/01 16:13:39;;;;;;;9.57;7.77;;;;;;;;;;6255030;28;20072;-61
2022/08/01 16:16:40;;;;;;;8.77;7.70;;;;;;;;;;6259044;28;20049;-60
2022/08/01 16:19:41;;;;;;;10.17;7.43;;;;;;;;;;6256684;28;20163;-59
2022/08/01 16:22:42;;;;;;;9.70;7.40;;;;;;;;;;6255763;28;20052;-60
2022/08/01 16:25:43;;;;;;;8.40;7.47;;;;;;;;;;6256089;28;20049;-60
2022/08/01 16:28:47;;;;;;;11.35;7.45;;;;;;;;;;6257568;28;21295;-60
2022/08/01 16:31:47;;;;;;;9.55;7.25;;;;;;;;;;6256702;28;20131;-59
2022/08/01 16:34:48;;;;;;;8.23;7.10;;;;;;;;;;6258289;28;20076;-60
2022/08/01 16:37:48;;;;;;;9.30;7.47;;;;;;;;;;6260830;28;20060;-59
2022/08/01 16:40:50;;;;;;;10.03;7.43;;;;;;;;;;6259801;28;20064;-60
2022/08/01 16:43:50;;;;;;;10.10;7.50;;;;;;;;;;6253858;28;20056;-59
2022/08/01 16:46:51;;;;;;;9.87;7.90;;;;;;;;;;6257569;28;20462;-60
2022/08/01 16:49:51;;;;;;;9.80;7.33;;;;;;;;;;6258036;28;20049;-60
2022/08/01 16:52:52;;;;;;;10.10;7.77;;;;;;;;;;6256054;28;20420;-61
2022/08/01 16:55:52;;;;;;;8.43;7.17;;;;;;;;;;6256411;28;20060;-60
2022/08/01 16:58:53;;;;;;;7.90;7.10;;;;;;;;;;6259506;28;20424;-60
2022/08/01 17:01:54;;;;;;;8.40;7.53;;;;;;;;;;6254837;28;20382;-59
2022/08/01 17:04:54;;;;;;;9.97;7.10;;;;;;;;;;6256117;28;20037;-61
2022/08/01 17:07:55;;;;;;;8.77;6.90;;;;;;;;;;6257713;28;20052;-60
2022/08/01 17:10:55;;;;;;;8.37;7.50;;;;;;;;;;6256943;28;20045;-59
2022/08/01 17:13:56;;;;;;;10.43;6.90;;;;;;;;;;6254039;28;20098;-59
2022/08/01 17:16:57;;;;;;;10.20;7.23;;;;;;;;;;6257713;28;20040;-61
2022/08/01 17:19:57;;;;;;;9.50;7.33;;;;;;;;;;6257124;28;20056;-61
2022/08/01 17:22:58;;;;;;;8.67;6.73;;;;;;;;;;6252481;28;20056;-60
2022/08/01 17:25:58;;;;;;;11.90;7.27;;;;;;;;;;6257018;28;20037;-61
2022/08/01 17:28:59;;;;;;;9.43;7.57;;;;;;;;;;6257860;28;20060;-60
2022/08/01 17:32:00;;;;;;;9.83;7.57;;;;;;;;;;6254839;28;20060;-61
2022/08/01 17:35:01;;;;;;;8.93;7.10;;;;;;;;;;6256520;28;20042;-61
2022/08/01 17:38:02;;;;;;;9.98;7.90;;;;;;;;;;6256555;28;20065;-60
2022/08/01 17:41:02;;;;;;;10.20;7.70;;;;;;;;;;6256044;28;20079;-61
2022/08/01 17:44:03;;;;;;;8.20;7.00;;;;;;;;;;6252909;28;20080;-61
2022/08/01 17:47:05;;;;;;;9.82;7.72;;;;;;;;;;6258458;28;20238;-60
2022/08/01 17:50:07;;;;;;;;;;;;;;;;;;6258404;28;20060;-60
2022/08/01 17:53:08;;;;;;;9.10;7.38;;;;;;;;;;6260114;28;19928;-60
2022/08/01 17:56:09;;;;;;;12.00;8.60;;;;;;;;;;6260642;28;20103;-61
2022/08/01 17:59:09;;;;;;;8.73;7.10;;;;;;;;;;6263013;28;20053;-61
2022/08/01 18:02:10;;;;;;;11.17;8.20;;;;;;;;;;6258210;28;20059;-60
2022/08/01 18:05:11;;;;;;;8.23;7.13;;;;;;;;;;6263456;28;20053;-60
2022/08/01 18:08:11;;;;;;;11.97;7.90;;;;;;;;;;6263197;28;20045;-61